createdAt,value
2023-01-20T00:01:31.919Z,98846.41
2023-01-20T00:03:58.770Z,98840.06
2023-01-20T00:06:27.929Z,98850.34
2023-01-20T00:08:56.314Z,98846.13
2023-01-20T00:11:23.428Z,98843.53
2023-01-20T00:13:54.849Z,98851.31
2023-01-20T00:16:22.110Z,98851.72
2023-01-20T00:18:49.072Z,98842.88
2023-01-20T00:21:19.263Z,98843.47
2023-01-20T00:23:47.145Z,98839.41
2023-01-20T00:26:19.397Z,98844.97
2023-01-20T00:28:46.680Z,98836.50
2023-01-20T00:31:22.440Z,98837.16
2023-01-20T00:33:50.768Z,98841.47
2023-01-20T00:36:18.777Z,98843.56
2023-01-20T00:38:46.631Z,98838.94
2023-01-20T00:41:14.948Z,98849.31
2023-01-20T00:43:41.705Z,98857.16
2023-01-20T00:46:08.581Z,98863.88
2023-01-20T00:48:36.017Z,98871.09
2023-01-20T00:51:03.990Z,98883.41
2023-01-20T00:53:30.676Z,98894.75
2023-01-20T00:55:57.551Z,98897.72
2023-01-20T00:58:24.344Z,98894.03
2023-01-20T01:00:52.470Z,98891.34
2023-01-20T01:03:19.376Z,98888.75
2023-01-20T01:05:46.308Z,98883.56
2023-01-20T01:08:13.338Z,98882.22
2023-01-20T01:10:40.707Z,98869.19
2023-01-20T01:13:09.025Z,98868.41
2023-01-20T01:15:36.356Z,98850.94
2023-01-20T01:18:03.676Z,98850.94
2023-01-20T01:20:30.804Z,98842.69
2023-01-20T01:22:57.579Z,98833.88
2023-01-20T01:25:24.558Z,98828.88
2023-01-20T01:27:51.277Z,98827.31
2023-01-20T01:30:18.165Z,98827.31
2023-01-20T01:32:44.977Z,98829.91
2023-01-20T01:35:12.298Z,98823.50
2023-01-20T01:37:39.259Z,98813.09
2023-01-20T01:40:06.846Z,98812.44
2023-01-20T01:42:33.629Z,98806.19
2023-01-20T01:45:12.819Z,98810.34
2023-01-20T01:47:40.697Z,98811.19
2023-01-20T01:50:09.825Z,98815.41
2023-01-20T01:52:36.650Z,98804.06
2023-01-20T01:55:04.127Z,98814.25
2023-01-20T01:57:31.719Z,98806.94
2023-01-20T01:59:58.491Z,98803.97
2023-01-20T02:02:25.389Z,98805.81
2023-01-20T02:04:52.145Z,98799.09
2023-01-20T02:07:20.900Z,98796.97
2023-01-20T02:09:47.706Z,98788.78
2023-01-20T02:12:16.177Z,98802.16
2023-01-20T02:14:47.037Z,98798.03
2023-01-20T02:17:30.622Z,98795.72
2023-01-20T02:20:30.664Z,98789.75
2023-01-20T02:23:00.014Z,98785.06
2023-01-20T02:25:48.473Z,98784.75
2023-01-20T02:28:42.987Z,98792.84
2023-01-20T02:31:46.986Z,98793.31
2023-01-20T02:34:28.562Z,98794.28
2023-01-20T02:36:57.158Z,98790.63
2023-01-20T02:39:32.415Z,98802.63
2023-01-20T02:42:25.934Z,98792.75
2023-01-20T02:44:56.924Z,98798.41
2023-01-20T02:47:37.835Z,98794.78
2023-01-20T02:50:18.081Z,98805.63
2023-01-20T02:52:46.585Z,98798.34
2023-01-20T02:55:17.640Z,98811.28
2023-01-20T02:57:48.808Z,98815.41
2023-01-20T03:00:25.878Z,98819.34
2023-01-20T03:02:53.792Z,98819.06
2023-01-20T03:05:24.022Z,98825.31
2023-01-20T03:07:52.145Z,98820.13
2023-01-20T03:10:20.623Z,98817.16
2023-01-20T03:12:53.400Z,98817.91
2023-01-20T03:15:24.132Z,98820.97
2023-01-20T03:17:51.344Z,98829.25
2023-01-20T03:20:18.315Z,98825.59
2023-01-20T03:22:45.052Z,98824.84
2023-01-20T03:25:14.047Z,98837.50
2023-01-20T03:27:41.560Z,98841.38
2023-01-20T03:30:17.677Z,98852.50
2023-01-20T03:32:46.451Z,98847.13
2023-01-20T03:35:16.464Z,98841.16
2023-01-20T03:37:43.949Z,98853.94
2023-01-20T03:40:11.449Z,98857.84
2023-01-20T03:42:49.515Z,98849.03
2023-01-20T03:45:33.414Z,98846.34
2023-01-20T03:48:12.773Z,98856.16
2023-01-20T03:50:41.191Z,98845.19
2023-01-20T03:53:16.911Z,98845.69
2023-01-20T03:55:48.167Z,98837.34
2023-01-20T03:58:21.542Z,98828.50
2023-01-20T04:00:49.440Z,98836.38
2023-01-20T04:03:22.839Z,98839.44
2023-01-20T04:05:50.039Z,98832.91
2023-01-20T04:08:18.319Z,98836.75
2023-01-20T04:10:47.136Z,98834.16
2023-01-20T04:13:14.814Z,98824.38
2023-01-20T04:15:44.498Z,98813.69
2023-01-20T04:18:19.753Z,98829.81
2023-01-20T04:20:49.543Z,98833.84
2023-01-20T04:23:24.320Z,98827.44
2023-01-20T04:25:51.092Z,98830.50
2023-01-20T04:28:17.815Z,98829.84
2023-01-20T04:30:44.818Z,98835.97
2023-01-20T04:33:11.759Z,98831.25
2023-01-20T04:35:38.448Z,98834.44
2023-01-20T04:38:05.581Z,98836.53
2023-01-20T04:40:32.624Z,98842.50
2023-01-20T04:42:59.276Z,98841.91
2023-01-20T04:45:26.062Z,98849.03
2023-01-20T04:47:52.902Z,98851.53
2023-01-20T04:50:19.729Z,98848.66
2023-01-20T04:52:46.470Z,98848.84
2023-01-20T04:55:13.997Z,98845.28
2023-01-20T04:57:40.985Z,98845.00
2023-01-20T05:00:08.668Z,98836.44
2023-01-20T05:02:35.519Z,98818.78
2023-01-20T05:05:02.338Z,98817.53
2023-01-20T05:07:29.067Z,98811.47
2023-01-20T05:09:55.766Z,98798.31
2023-01-20T05:12:22.531Z,98804.47
2023-01-20T05:14:49.280Z,98783.44
2023-01-20T05:17:15.985Z,98774.50
2023-01-20T05:19:43.683Z,98778.53
2023-01-20T05:22:10.600Z,98775.25
2023-01-20T05:24:37.258Z,98775.16
2023-01-20T05:27:04.029Z,98780.25
2023-01-20T05:29:30.839Z,98782.75
2023-01-20T05:31:57.600Z,98783.97
2023-01-20T05:34:24.441Z,98783.09
2023-01-20T05:36:53.016Z,98786.84
2023-01-20T05:39:20.117Z,98779.22
2023-01-20T05:41:47.633Z,98781.13
2023-01-20T05:44:15.255Z,98781.72
2023-01-20T05:46:42.152Z,98790.47
2023-01-20T05:49:11.804Z,98792.28
2023-01-20T05:51:38.753Z,98797.00
2023-01-20T05:54:05.651Z,98792.66
2023-01-20T05:56:32.588Z,98790.56
2023-01-20T05:58:59.375Z,98795.66
2023-01-20T06:01:26.148Z,98799.75
2023-01-20T06:03:52.884Z,98803.63
2023-01-20T06:06:19.643Z,98804.22
2023-01-20T06:08:46.444Z,98811.06
2023-01-20T06:11:14.813Z,98809.44
2023-01-20T06:13:41.582Z,98804.59
2023-01-20T06:16:08.386Z,98801.31
2023-01-20T06:18:35.415Z,98799.38
2023-01-20T06:21:02.237Z,98793.31
2023-01-20T06:23:29.843Z,98799.16
2023-01-20T06:26:00.455Z,98797.22
2023-01-20T06:28:27.623Z,98794.47
2023-01-20T06:31:05.987Z,98787.34
2023-01-20T06:33:33.217Z,98793.91
2023-01-20T06:36:00.633Z,98795.75
2023-01-20T06:38:30.016Z,98799.63
2023-01-20T06:41:00.978Z,98801.97
2023-01-20T06:43:31.724Z,98808.19
2023-01-20T06:46:00.339Z,98812.22
2023-01-20T06:48:27.188Z,98807.97
2023-01-20T06:50:54.069Z,98814.28
2023-01-20T06:53:20.864Z,98817.50
2023-01-20T06:55:56.150Z,98822.88
2023-01-20T06:58:24.952Z,98831.75
2023-01-20T07:00:52.308Z,98828.22
2023-01-20T07:03:19.600Z,98821.69
2023-01-20T07:05:58.974Z,98830.72
2023-01-20T07:08:25.870Z,98831.31
2023-01-20T07:10:52.681Z,98835.59
2023-01-20T07:13:19.487Z,98837.97
2023-01-20T07:15:46.265Z,98839.72
2023-01-20T07:18:13.311Z,98838.78
2023-01-20T07:20:40.290Z,98837.97
2023-01-20T07:23:07.856Z,98842.69
2023-01-20T07:25:34.793Z,98851.25
2023-01-20T07:28:01.533Z,98862.34
2023-01-20T07:30:28.388Z,98857.75
2023-01-20T07:32:55.234Z,98860.25
2023-01-20T07:35:22.077Z,98863.03
2023-01-20T07:37:48.852Z,98857.63
2023-01-20T07:40:15.765Z,98854.91
2023-01-20T07:42:42.661Z,98852.03
2023-01-20T07:45:09.815Z,98859.91
2023-01-20T07:47:36.509Z,98852.41
2023-01-20T07:50:03.464Z,98846.22
2023-01-20T07:52:30.224Z,98852.84
2023-01-20T07:54:56.935Z,98855.78
2023-01-20T07:57:23.744Z,98857.91
2023-01-20T07:59:51.736Z,98852.91
2023-01-20T08:02:18.486Z,98864.06
2023-01-20T08:04:45.259Z,98858.69
2023-01-20T08:07:12.287Z,98868.50
2023-01-20T08:09:41.068Z,98875.06
2023-01-20T08:12:08.024Z,98877.75
2023-01-20T08:14:37.668Z,98879.91
2023-01-20T08:17:04.630Z,98885.84
2023-01-20T08:19:31.429Z,98880.19
2023-01-20T08:21:58.211Z,98878.16
2023-01-20T08:24:24.917Z,98881.63
2023-01-20T08:26:52.039Z,98878.44
2023-01-20T08:29:19.115Z,98880.59
2023-01-20T08:31:45.950Z,98887.78
2023-01-20T08:34:12.940Z,98875.25
2023-01-20T08:36:41.018Z,98890.47
2023-01-20T08:39:09.787Z,98890.94
2023-01-20T08:41:38.813Z,98884.97
2023-01-20T08:44:07.102Z,98881.41
2023-01-20T08:46:34.575Z,98886.31
2023-01-20T08:49:01.338Z,98886.78
2023-01-20T08:51:30.506Z,98884.97
2023-01-20T08:53:57.623Z,98885.72
2023-01-20T08:56:24.400Z,98889.28
2023-01-20T08:58:51.225Z,98885.81
2023-01-20T09:01:23.887Z,98886.84
2023-01-20T09:04:04.227Z,98891.00
2023-01-20T09:06:39.581Z,98885.31
2023-01-20T09:09:06.408Z,98891.28
2023-01-20T09:11:33.513Z,98891.00
2023-01-20T09:14:00.389Z,98896.19
2023-01-20T09:16:28.052Z,98892.53
2023-01-20T09:18:54.860Z,98889.63
2023-01-20T09:21:21.980Z,98898.09
2023-01-20T09:23:48.807Z,98888.75
2023-01-20T09:26:26.093Z,98886.94
2023-01-20T09:29:09.752Z,98883.63
2023-01-20T09:31:44.491Z,98872.19
2023-01-20T09:34:18.931Z,98867.16
2023-01-20T09:36:46.304Z,98862.91
2023-01-20T09:39:34.440Z,98852.34
2023-01-20T09:42:30.883Z,98836.63
2023-01-20T09:45:27.897Z,98841.13
2023-01-20T09:48:14.288Z,98832.16
2023-01-20T09:51:09.819Z,98837.41
2023-01-20T09:53:50.949Z,98834.19
2023-01-20T09:56:18.772Z,98834.25
2023-01-20T09:58:57.652Z,98830.00
2023-01-20T10:01:30.952Z,98820.84
2023-01-20T10:04:01.906Z,98822.72
2023-01-20T10:06:37.598Z,98809.56
2023-01-20T10:09:08.802Z,98798.22
2023-01-20T10:11:39.166Z,98799.00
2023-01-20T10:14:26.586Z,98788.16
2023-01-20T10:17:02.552Z,98776.19
2023-01-20T10:19:37.788Z,98766.84
2023-01-20T10:22:20.570Z,98767.13
2023-01-20T10:24:59.665Z,98763.31
2023-01-20T10:27:28.694Z,98760.72
2023-01-20T10:30:09.033Z,98758.72
2023-01-20T10:33:01.161Z,98763.63
2023-01-20T10:35:29.546Z,98758.41
2023-01-20T10:37:58.623Z,98761.91
2023-01-20T10:40:35.342Z,98771.56
2023-01-20T10:43:10.686Z,98767.88
2023-01-20T10:46:01.883Z,98761.25
2023-01-20T10:48:50.302Z,98764.47
2023-01-20T10:51:35.321Z,98771.97
2023-01-20T10:54:37.475Z,98781.47
2023-01-20T10:57:05.052Z,98786.38
2023-01-20T10:59:40.286Z,98784.72
2023-01-20T11:02:30.772Z,98794.38
2023-01-20T11:04:59.968Z,98784.44
2023-01-20T11:07:27.718Z,98791.19
2023-01-20T11:09:54.711Z,98797.13
2023-01-20T11:12:27.512Z,98790.56
2023-01-20T11:14:55.723Z,98796.69
2023-01-20T11:17:22.485Z,98793.94
2023-01-20T11:19:51.989Z,98795.00
2023-01-20T11:22:26.744Z,98787.97
2023-01-20T11:24:56.307Z,98773.44
2023-01-20T11:27:27.371Z,98783.09
2023-01-20T11:30:03.986Z,98772.03
2023-01-20T11:32:32.151Z,98765.28
2023-01-20T11:35:00.661Z,98768.19
2023-01-20T11:37:36.464Z,98763.91
2023-01-20T11:40:18.163Z,98757.47
2023-01-20T11:42:47.119Z,98746.13
2023-01-20T11:45:27.499Z,98736.03
2023-01-20T11:48:06.405Z,98740.75
2023-01-20T11:50:56.274Z,98736.94
2023-01-20T11:53:31.828Z,98736.31
2023-01-20T11:56:01.496Z,98742.47
2023-01-20T11:58:32.326Z,98738.78
2023-01-20T12:01:07.126Z,98736.34
2023-01-20T12:04:10.571Z,98731.28
2023-01-20T12:06:46.667Z,98727.75
2023-01-20T12:09:16.080Z,98727.75
2023-01-20T12:11:50.134Z,98732.03
2023-01-20T12:14:20.077Z,98733.13
2023-01-20T12:17:06.654Z,98728.50
2023-01-20T12:19:42.512Z,98727.72
2023-01-20T12:22:18.336Z,98732.16
2023-01-20T12:25:08.684Z,98750.13
2023-01-20T12:27:41.987Z,98747.94
2023-01-20T12:30:32.317Z,98749.00
2023-01-20T12:32:59.211Z,98751.94
2023-01-20T12:35:29.585Z,98748.72
2023-01-20T12:38:00.364Z,98753.50
2023-01-20T12:40:30.036Z,98739.22
2023-01-20T12:43:14.751Z,98744.47
2023-01-20T12:45:45.666Z,98746.16
2023-01-20T12:48:51.133Z,98742.47
2023-01-20T12:51:34.997Z,98747.06
2023-01-20T12:54:28.521Z,98740.78
2023-01-20T12:57:12.953Z,98739.56
2023-01-20T12:59:45.378Z,98741.69
2023-01-20T13:02:46.343Z,98736.94
2023-01-20T13:05:29.213Z,98742.13
2023-01-20T13:08:36.613Z,98750.06
2023-01-20T13:11:35.419Z,98755.81
2023-01-20T13:14:23.363Z,98766.97
2023-01-20T13:16:53.479Z,98757.63
2023-01-20T13:19:35.414Z,98762.28
2023-01-20T13:22:24.244Z,98764.84
2023-01-20T13:24:53.331Z,98765.66
2023-01-20T13:27:40.277Z,98772.88
2023-01-20T13:30:08.336Z,98770.88
2023-01-20T13:32:45.446Z,98762.84
2023-01-20T13:35:18.365Z,98768.16
2023-01-20T13:37:52.466Z,98767.22
2023-01-20T13:40:37.717Z,98768.41
2023-01-20T13:43:25.578Z,98756.75
2023-01-20T13:46:07.692Z,98758.03
2023-01-20T13:48:35.958Z,98764.19
2023-01-20T13:51:21.533Z,98767.56
2023-01-20T13:53:48.344Z,98762.97
2023-01-20T13:56:28.708Z,98766.59
2023-01-20T13:58:58.220Z,98769.97
2023-01-20T14:01:26.104Z,98763.06
2023-01-20T14:04:02.939Z,98763.06
2023-01-20T14:06:30.061Z,98767.47
2023-01-20T14:08:57.077Z,98771.25
2023-01-20T14:11:25.873Z,98774.63
2023-01-20T14:13:58.063Z,98778.28
2023-01-20T14:16:30.083Z,98783.09
2023-01-20T14:19:00.081Z,98771.00
2023-01-20T14:21:29.163Z,98783.00
2023-01-20T14:23:56.582Z,98780.78
2023-01-20T14:26:23.371Z,98778.38
2023-01-20T14:28:55.648Z,98780.97
2023-01-20T14:31:36.590Z,98776.28
2023-01-20T14:34:29.080Z,98787.13
2023-01-20T14:36:57.979Z,98784.16
2023-01-20T14:39:26.734Z,98782.59
2023-01-20T14:41:57.730Z,98778.50
2023-01-20T14:44:29.198Z,98782.75
2023-01-20T14:46:57.887Z,98786.56
2023-01-20T14:49:32.603Z,98788.13
2023-01-20T14:52:00.077Z,98789.66
2023-01-20T14:54:35.209Z,98786.78
2023-01-20T14:57:25.710Z,98793.31
2023-01-20T15:00:03.977Z,98788.88
2023-01-20T15:02:34.578Z,98794.84
2023-01-20T15:05:01.619Z,98798.03
2023-01-20T15:07:28.559Z,98791.50
2023-01-20T15:10:04.065Z,98786.88
2023-01-20T15:12:30.788Z,98798.88
2023-01-20T15:15:06.614Z,98800.66
2023-01-20T15:17:33.389Z,98808.97
2023-01-20T15:20:00.121Z,98807.53
2023-01-20T15:22:27.404Z,98809.28
2023-01-20T15:24:54.523Z,98820.44
2023-01-20T15:27:28.803Z,98818.88
2023-01-20T15:30:20.149Z,98819.56
2023-01-20T15:32:47.771Z,98818.22
2023-01-20T15:35:16.457Z,98807.94
2023-01-20T15:37:43.939Z,98816.84
2023-01-20T15:40:16.686Z,98811.97
2023-01-20T15:42:43.831Z,98809.19
2023-01-20T15:45:15.149Z,98813.13
2023-01-20T15:47:42.911Z,98810.59
2023-01-20T15:50:19.088Z,98822.31
2023-01-20T15:52:46.100Z,98821.94
2023-01-20T15:55:14.940Z,98814.25
2023-01-20T15:57:42.305Z,98823.75
2023-01-20T16:00:17.147Z,98820.94
2023-01-20T16:02:44.155Z,98813.66
2023-01-20T16:05:14.626Z,98816.16
2023-01-20T16:07:44.245Z,98813.81
2023-01-20T16:10:18.563Z,98812.38
2023-01-20T16:12:46.322Z,98814.00
2023-01-20T16:15:15.286Z,98817.66
2023-01-20T16:17:42.250Z,98821.84
2023-01-20T16:20:29.320Z,98829.16
2023-01-20T16:22:57.401Z,98828.38
2023-01-20T16:25:24.726Z,98823.97
2023-01-20T16:27:53.518Z,98826.38
2023-01-20T16:30:22.766Z,98820.88
2023-01-20T16:32:50.160Z,98812.84
2023-01-20T16:35:18.430Z,98809.00
2023-01-20T16:37:47.465Z,98805.91
2023-01-20T16:40:16.654Z,98818.94
2023-01-20T16:42:43.761Z,98818.75
2023-01-20T16:45:23.974Z,98808.19
2023-01-20T16:47:50.964Z,98819.38
2023-01-20T16:50:18.532Z,98817.56
2023-01-20T16:52:45.971Z,98820.16
2023-01-20T16:55:13.682Z,98833.69
2023-01-20T16:57:40.502Z,98824.47
2023-01-20T17:00:08.543Z,98829.13
2023-01-20T17:02:35.390Z,98831.16
2023-01-20T17:05:02.247Z,98824.47
2023-01-20T17:07:28.967Z,98831.34
2023-01-20T17:09:56.290Z,98831.59
2023-01-20T17:12:23.296Z,98835.22
2023-01-20T17:14:50.133Z,98820.16
2023-01-20T17:17:16.945Z,98823.25
2023-01-20T17:19:43.983Z,98817.56
2023-01-20T17:22:10.831Z,98825.91
2023-01-20T17:24:39.266Z,98826.41
2023-01-20T17:27:07.019Z,98832.91
2023-01-20T17:29:38.806Z,98831.59
2023-01-20T17:32:05.591Z,98837.31
2023-01-20T17:34:32.473Z,98827.94
2023-01-20T17:36:59.970Z,98831.78
2023-01-20T17:39:33.127Z,98831.22
2023-01-20T17:41:59.891Z,98826.09
2023-01-20T17:44:26.633Z,98829.53
2023-01-20T17:46:53.614Z,98833.09
2023-01-20T17:49:20.627Z,98831.50
2023-01-20T17:51:47.596Z,98819.88
2023-01-20T17:54:14.305Z,98825.53
2023-01-20T17:56:41.201Z,98821.22
2023-01-20T17:59:08.033Z,98832.34
2023-01-20T18:01:35.054Z,98827.94
2023-01-20T18:04:04.333Z,98823.53
2023-01-20T18:06:34.935Z,98828.44
2023-01-20T18:09:02.646Z,98823.53
2023-01-20T18:11:32.086Z,98828.31
2023-01-20T18:14:00.389Z,98832.53
2023-01-20T18:16:30.575Z,98833.50
2023-01-20T18:19:00.839Z,98827.78
2023-01-20T18:21:33.183Z,98829.31
2023-01-20T18:24:01.163Z,98823.66
2023-01-20T18:26:30.912Z,98812.31
2023-01-20T18:29:02.432Z,98814.34
2023-01-20T18:31:31.862Z,98809.66
2023-01-20T18:34:01.116Z,98800.91
2023-01-20T18:36:33.694Z,98812.03
2023-01-20T18:39:08.992Z,98810.19
2023-01-20T18:41:37.829Z,98806.50
2023-01-20T18:44:05.464Z,98804.88
2023-01-20T18:46:32.721Z,98800.16
2023-01-20T18:48:59.852Z,98800.09
2023-01-20T18:51:28.958Z,98805.75
2023-01-20T18:54:13.059Z,98807.47
2023-01-20T18:56:40.287Z,98808.81
2023-01-20T18:59:07.892Z,98801.56
2023-01-20T19:01:37.964Z,98805.97
2023-01-20T19:04:06.361Z,98798.47
2023-01-20T19:06:36.895Z,98804.88
2023-01-20T19:09:04.440Z,98794.25
2023-01-20T19:11:34.373Z,98796.75
2023-01-20T19:14:01.659Z,98789.25
2023-01-20T19:16:33.212Z,98792.63
2023-01-20T19:19:02.258Z,98798.78
2023-01-20T19:21:33.628Z,98807.78
2023-01-20T19:24:05.825Z,98816.84
2023-01-20T19:26:35.817Z,98826.13
2023-01-20T19:29:06.324Z,98830.56
2023-01-20T19:31:35.998Z,98828.19
2023-01-20T19:34:03.173Z,98832.28
2023-01-20T19:36:30.322Z,98831.72
2023-01-20T19:38:57.911Z,98836.91
2023-01-20T19:41:29.645Z,98850.34
2023-01-20T19:43:58.092Z,98848.25
2023-01-20T19:46:27.167Z,98854.41
2023-01-20T19:48:56.006Z,98852.28
2023-01-20T19:51:24.028Z,98861.41
2023-01-20T19:53:58.054Z,98861.59
2023-01-20T19:56:27.366Z,98857.00
2023-01-20T19:58:55.230Z,98842.66
2023-01-20T20:01:24.853Z,98853.22
2023-01-20T20:03:52.872Z,98838.34
2023-01-20T20:06:49.108Z,98837.88
2023-01-20T20:09:18.631Z,98844.59
2023-01-20T20:11:46.878Z,98849.78
2023-01-20T20:14:16.134Z,98852.66
2023-01-20T20:16:43.565Z,98854.00
2023-01-20T20:19:14.143Z,98861.00
2023-01-20T20:21:41.228Z,98859.56
2023-01-20T20:24:10.562Z,98854.94
2023-01-20T20:26:37.765Z,98858.69
2023-01-20T20:29:06.801Z,98864.94
2023-01-20T20:31:35.655Z,98863.38
2023-01-20T20:34:03.304Z,98869.53
2023-01-20T20:36:31.025Z,98875.50
2023-01-20T20:38:59.182Z,98878.78
2023-01-20T20:41:28.884Z,98885.53
2023-01-20T20:43:56.525Z,98881.47
2023-01-20T20:46:23.656Z,98877.81
2023-01-20T20:48:54.531Z,98880.59
2023-01-20T20:51:23.728Z,98888.59
2023-01-20T20:53:56.273Z,98890.19
2023-01-20T20:56:23.876Z,98892.78
2023-01-20T20:59:01.033Z,98893.56
2023-01-20T21:01:30.992Z,98886.56
2023-01-20T21:04:00.245Z,98903.16
2023-01-20T21:06:27.483Z,98903.44
2023-01-20T21:08:54.549Z,98904.41
2023-01-20T21:11:21.774Z,98905.69
2023-01-20T21:13:51.685Z,98901.06
2023-01-20T21:16:22.067Z,98905.09
2023-01-20T21:18:50.323Z,98897.59
2023-01-20T21:21:19.235Z,98905.88
2023-01-20T21:23:54.190Z,98894.81
2023-01-20T21:26:21.445Z,98903.75
2023-01-20T21:28:51.249Z,98905.84
2023-01-20T21:31:21.369Z,98911.53
2023-01-20T21:33:53.504Z,98915.16
2023-01-20T21:36:21.513Z,98916.97
2023-01-20T21:38:48.440Z,98911.03
2023-01-20T21:41:15.649Z,98928.13
2023-01-20T21:44:03.003Z,98932.53
2023-01-20T21:46:38.264Z,98930.78
2023-01-20T21:49:24.775Z,98935.56
2023-01-20T21:52:10.122Z,98935.50
2023-01-20T21:54:39.396Z,98939.06
2023-01-20T21:57:06.171Z,98930.50
2023-01-20T21:59:32.887Z,98935.50
2023-01-20T22:01:59.785Z,98940.75
2023-01-20T22:04:26.603Z,98944.38
2023-01-20T22:06:53.348Z,98951.06
2023-01-20T22:09:20.149Z,98952.59
2023-01-20T22:11:46.928Z,98954.88
2023-01-20T22:14:13.685Z,98953.50
2023-01-20T22:16:40.641Z,98966.25
2023-01-20T22:19:07.495Z,98961.47
2023-01-20T22:21:34.307Z,98963.31
2023-01-20T22:24:02.810Z,98959.41
2023-01-20T22:26:29.718Z,98960.38
2023-01-20T22:28:56.754Z,98963.16
2023-01-20T22:31:24.073Z,98954.63
2023-01-20T22:33:54.909Z,98961.88
2023-01-20T22:36:22.645Z,98962.97
2023-01-20T22:38:50.655Z,98966.03
2023-01-20T22:41:18.442Z,98964.78
2023-01-20T22:43:45.246Z,98970.75
2023-01-20T22:46:13.695Z,98977.75
2023-01-20T22:48:41.202Z,98974.84
2023-01-20T22:51:10.703Z,98974.03
2023-01-20T22:53:38.295Z,98975.84
2023-01-20T22:56:07.127Z,98977.59
2023-01-20T22:58:34.267Z,98970.81
2023-01-20T23:01:01.356Z,98971.06
2023-01-20T23:03:28.298Z,98968.78
2023-01-20T23:05:57.209Z,98977.59
2023-01-20T23:08:27.379Z,98967.81
2023-01-20T23:11:00.196Z,98969.91
2023-01-20T23:13:28.951Z,98970.66
2023-01-20T23:15:56.297Z,98968.28
2023-01-20T23:18:23.711Z,98960.50
2023-01-20T23:20:54.272Z,98964.13
2023-01-20T23:23:21.605Z,98967.72
2023-01-20T23:25:48.324Z,98965.84
2023-01-20T23:28:15.933Z,98967.41
2023-01-20T23:30:43.616Z,98975.03
2023-01-20T23:33:10.489Z,98978.22
2023-01-20T23:35:39.055Z,98984.19
2023-01-20T23:38:07.089Z,98985.25
2023-01-20T23:40:34.922Z,98991.56
2023-01-20T23:43:01.663Z,98996.16
2023-01-20T23:45:28.827Z,98988.88
2023-01-20T23:47:55.657Z,98988.03
2023-01-20T23:50:22.495Z,98991.41
2023-01-20T23:52:49.206Z,99001.00
2023-01-20T23:55:16.028Z,98988.13
2023-01-20T23:57:42.814Z,99008.72
